createdAt,value
2023-02-16T00:01:54.324Z,21.67
2023-02-16T00:04:25.706Z,18.70
2023-02-16T00:06:55.191Z,19.83
2023-02-16T00:09:25.094Z,23.20
2023-02-16T00:12:11.957Z,20.20
2023-02-16T00:14:41.471Z,20.20
2023-02-16T00:17:12.827Z,22.20
2023-02-16T00:19:45.208Z,18.70
2023-02-16T00:22:13.235Z,16.63
2023-02-16T00:24:41.172Z,18.90
2023-02-16T00:27:18.438Z,21.70
2023-02-16T00:29:47.783Z,19.67
2023-02-16T00:32:15.897Z,19.00
2023-02-16T00:34:44.524Z,18.53
2023-02-16T00:37:14.799Z,21.60
2023-02-16T00:39:45.018Z,17.60
2023-02-16T00:42:19.208Z,18.47
2023-02-16T00:44:50.626Z,19.27
2023-02-16T00:47:22.264Z,20.97
2023-02-16T00:49:53.285Z,18.03
2023-02-16T00:52:36.044Z,17.10
2023-02-16T00:55:06.791Z,17.13
2023-02-16T00:57:38.973Z,18.63
2023-02-16T01:00:18.760Z,18.10
2023-02-16T01:02:49.356Z,18.97
2023-02-16T01:05:18.005Z,15.40
2023-02-16T01:08:04.047Z,17.33
2023-02-16T01:11:05.928Z,15.70
2023-02-16T01:13:39.236Z,15.27
2023-02-16T01:16:15.014Z,14.73
2023-02-16T01:18:43.098Z,16.93
2023-02-16T01:21:11.093Z,18.63
2023-02-16T01:23:40.227Z,19.30
2023-02-16T01:26:14.031Z,18.73
2023-02-16T01:28:42.103Z,16.57
2023-02-16T01:31:13.016Z,18.80
2023-02-16T01:33:41.545Z,16.60
2023-02-16T01:36:24.069Z,20.13
2023-02-16T01:38:52.039Z,17.73
2023-02-16T01:41:30.757Z,20.47
2023-02-16T01:44:04.668Z,33.20
2023-02-16T01:46:44.538Z,24.40
2023-02-16T01:49:14.736Z,26.80
2023-02-16T01:51:54.656Z,27.60
2023-02-16T01:54:36.208Z,21.40
2023-02-16T01:57:13.175Z,23.07
2023-02-16T02:00:10.597Z,22.90
2023-02-16T02:02:43.189Z,26.77
2023-02-16T02:05:37.942Z,29.33
2023-02-16T02:08:18.362Z,22.93
2023-02-16T02:10:59.097Z,21.53
2023-02-16T02:13:34.112Z,16.00
2023-02-16T02:16:03.228Z,21.70
2023-02-16T02:18:32.602Z,19.97
2023-02-16T02:21:40.451Z,18.33
2023-02-16T02:24:41.623Z,17.77
2023-02-16T02:27:22.168Z,16.30
2023-02-16T02:30:05.074Z,20.40
2023-02-16T02:32:51.559Z,24.20
2023-02-16T02:35:44.904Z,15.47
2023-02-16T02:38:24.990Z,18.10
2023-02-16T02:41:01.309Z,15.23
2023-02-16T02:43:38.068Z,19.77
2023-02-16T02:46:12.522Z,20.00
2023-02-16T02:48:40.660Z,15.80
2023-02-16T02:51:33.779Z,19.83
2023-02-16T02:54:23.887Z,18.37
2023-02-16T02:57:14.805Z,18.10
2023-02-16T03:00:06.536Z,19.37
2023-02-16T03:02:36.960Z,15.70
2023-02-16T03:05:08.502Z,15.87
2023-02-16T03:07:47.752Z,18.93
2023-02-16T03:10:33.655Z,15.60
2023-02-16T03:13:05.034Z,16.30
2023-02-16T03:15:37.607Z,17.23
2023-02-16T03:18:26.045Z,18.73
2023-02-16T03:21:12.344Z,18.57
2023-02-16T03:24:00.386Z,15.33
2023-02-16T03:26:47.132Z,16.67
2023-02-16T03:29:21.906Z,16.27
2023-02-16T03:31:53.091Z,14.33
2023-02-16T03:34:22.895Z,17.17
2023-02-16T03:36:58.342Z,15.03
2023-02-16T03:39:27.375Z,15.40
2023-02-16T03:41:57.526Z,16.50
2023-02-16T03:44:26.173Z,17.90
2023-02-16T03:46:55.552Z,19.63
2023-02-16T03:49:23.606Z,15.67
2023-02-16T03:51:51.524Z,15.57
2023-02-16T03:54:19.502Z,16.37
2023-02-16T03:56:47.482Z,18.10
2023-02-16T03:59:15.458Z,24.47
2023-02-16T04:01:43.505Z,15.10
2023-02-16T04:04:14.688Z,21.10
2023-02-16T04:06:42.705Z,15.33
2023-02-16T04:09:10.962Z,15.73
2023-02-16T04:11:56.370Z,16.00
2023-02-16T04:14:24.446Z,15.90
2023-02-16T04:16:52.591Z,17.10
2023-02-16T04:19:24.038Z,16.53
2023-02-16T04:21:53.441Z,16.37
2023-02-16T04:24:21.527Z,18.53
2023-02-16T04:26:49.528Z,18.13
2023-02-16T04:29:17.572Z,16.30
2023-02-16T04:31:45.684Z,18.50
2023-02-16T04:34:13.696Z,16.70
2023-02-16T04:36:43.068Z,13.90
2023-02-16T04:39:11.064Z,14.90
2023-02-16T04:41:39.012Z,14.67
2023-02-16T04:44:07.621Z,14.67
2023-02-16T04:46:35.615Z,12.53
2023-02-16T04:49:03.697Z,16.23
2023-02-16T04:51:31.728Z,14.27
2023-02-16T04:54:01.004Z,14.87
2023-02-16T04:56:29.253Z,17.80
2023-02-16T04:58:57.682Z,14.50
2023-02-16T05:01:28.389Z,15.20
2023-02-16T05:03:56.645Z,15.50
2023-02-16T05:06:24.607Z,15.67
2023-02-16T05:08:52.619Z,14.23
2023-02-16T05:11:39.271Z,13.57
2023-02-16T05:14:24.757Z,13.77
2023-02-16T05:16:53.995Z,16.07
2023-02-16T05:19:22.014Z,14.77
2023-02-16T05:21:49.986Z,17.47
2023-02-16T05:24:17.956Z,17.80
2023-02-16T05:26:47.248Z,14.97
2023-02-16T05:29:17.792Z,14.97
2023-02-16T05:31:45.979Z,14.60
2023-02-16T05:34:14.146Z,13.53
2023-02-16T05:36:42.104Z,14.60
2023-02-16T05:39:10.394Z,13.00
2023-02-16T05:41:38.370Z,13.30
2023-02-16T05:44:09.308Z,14.90
2023-02-16T05:46:40.726Z,14.17
2023-02-16T05:49:09.812Z,16.30
2023-02-16T05:51:38.670Z,15.60
2023-02-16T05:54:07.265Z,13.13
2023-02-16T05:56:35.481Z,14.07
2023-02-16T05:59:03.469Z,14.67
2023-02-16T06:01:32.818Z,14.40
2023-02-16T06:04:00.837Z,21.80
2023-02-16T06:06:28.804Z,14.87
2023-02-16T06:08:56.827Z,19.63
2023-02-16T06:11:38.767Z,28.27
2023-02-16T06:14:09.377Z,16.67
2023-02-16T06:16:42.146Z,17.03
2023-02-16T06:19:10.545Z,18.07
2023-02-16T06:21:40.372Z,14.00
2023-02-16T06:24:10.811Z,17.33
2023-02-16T06:26:38.829Z,12.80
2023-02-16T06:29:07.533Z,12.07
2023-02-16T06:31:36.838Z,14.10
2023-02-16T06:34:07.141Z,19.90
2023-02-16T06:36:35.674Z,15.90
2023-02-16T06:39:04.562Z,19.53
2023-02-16T06:41:35.472Z,12.90
2023-02-16T06:44:06.850Z,12.20
2023-02-16T06:46:35.139Z,16.40
2023-02-16T06:49:03.302Z,13.20
2023-02-16T06:51:33.041Z,16.13
2023-02-16T06:54:01.100Z,10.97
2023-02-16T06:56:29.102Z,20.00
2023-02-16T06:58:57.216Z,15.00
2023-02-16T07:01:25.887Z,18.00
2023-02-16T07:03:56.336Z,12.13
2023-02-16T07:06:26.076Z,18.20
2023-02-16T07:08:55.998Z,15.17
2023-02-16T07:11:24.433Z,13.67
2023-02-16T07:13:52.570Z,16.53
2023-02-16T07:16:21.023Z,11.73
2023-02-16T07:18:49.161Z,18.23
2023-02-16T07:21:17.294Z,13.20
2023-02-16T07:23:45.698Z,13.00
2023-02-16T07:26:15.161Z,14.90
2023-02-16T07:28:43.239Z,17.37
2023-02-16T07:31:13.536Z,12.23
2023-02-16T07:33:41.724Z,14.27
2023-02-16T07:36:11.751Z,19.90
2023-02-16T07:38:41.837Z,20.17
2023-02-16T07:41:11.201Z,15.73
2023-02-16T07:43:42.708Z,19.90
2023-02-16T07:46:11.116Z,16.43
2023-02-16T07:48:45.184Z,15.73
2023-02-16T07:51:26.111Z,15.87
2023-02-16T07:53:54.644Z,18.10
2023-02-16T07:56:24.849Z,14.67
2023-02-16T07:58:55.725Z,17.90
2023-02-16T08:01:24.667Z,15.00
2023-02-16T08:03:53.282Z,19.93
2023-02-16T08:06:21.593Z,19.87
2023-02-16T08:08:50.037Z,13.37
2023-02-16T08:11:21.446Z,13.83
2023-02-16T08:13:50.255Z,12.60
2023-02-16T08:16:22.075Z,12.77
2023-02-16T08:18:50.739Z,12.30
2023-02-16T08:21:21.998Z,15.60
2023-02-16T08:23:56.708Z,14.07
2023-02-16T08:26:26.943Z,14.57
2023-02-16T08:28:56.439Z,15.50
2023-02-16T08:31:34.969Z,13.40
2023-02-16T08:34:04.242Z,15.97
2023-02-16T08:36:34.973Z,16.17
2023-02-16T08:39:07.092Z,14.00
2023-02-16T08:41:38.567Z,16.50
2023-02-16T08:44:08.954Z,13.97
2023-02-16T08:46:41.480Z,16.77
2023-02-16T08:49:11.275Z,15.70
2023-02-16T08:51:43.336Z,16.30
2023-02-16T08:54:18.043Z,14.40
2023-02-16T08:56:48.078Z,17.63
2023-02-16T08:59:18.281Z,14.40
2023-02-16T09:01:48.247Z,15.30
2023-02-16T09:04:19.110Z,16.23
2023-02-16T09:06:48.998Z,14.63
2023-02-16T09:09:17.261Z,15.50
2023-02-16T09:11:45.906Z,13.23
2023-02-16T09:14:13.961Z,14.80
2023-02-16T09:16:45.555Z,14.40
2023-02-16T09:19:17.750Z,11.97
2023-02-16T09:21:47.023Z,13.23
2023-02-16T09:24:16.007Z,12.20
2023-02-16T09:26:44.640Z,15.43
2023-02-16T09:29:14.678Z,13.90
2023-02-16T09:31:44.301Z,13.90
2023-02-16T09:34:20.158Z,14.53
2023-02-16T09:36:48.720Z,14.07
2023-02-16T09:39:17.671Z,13.90
2023-02-16T09:42:19.796Z,15.30
2023-02-16T09:44:56.192Z,15.87
2023-02-16T09:47:31.031Z,15.37
2023-02-16T09:50:04.004Z,15.90
2023-02-16T09:52:40.290Z,15.60
2023-02-16T09:55:13.159Z,12.87
2023-02-16T09:57:56.793Z,14.90
2023-02-16T10:00:42.094Z,14.90
2023-02-16T10:03:28.831Z,14.33
2023-02-16T10:06:10.572Z,15.10
2023-02-16T10:08:43.100Z,13.97
2023-02-16T10:11:30.111Z,17.03
2023-02-16T10:14:02.870Z,14.57
2023-02-16T10:16:38.873Z,14.10
2023-02-16T10:19:19.513Z,14.80
2023-02-16T10:21:56.368Z,12.43
2023-02-16T10:24:27.168Z,16.70
2023-02-16T10:27:03.435Z,16.00
2023-02-16T10:29:31.458Z,15.67
2023-02-16T10:32:13.485Z,15.10
2023-02-16T10:34:50.214Z,17.47
2023-02-16T10:37:38.739Z,15.13
2023-02-16T10:40:34.440Z,16.87
2023-02-16T10:43:08.391Z,15.90
2023-02-16T10:45:46.416Z,15.43
2023-02-16T10:48:15.744Z,16.37
2023-02-16T10:50:48.961Z,14.60
2023-02-16T10:53:22.967Z,16.30
2023-02-16T10:55:51.066Z,14.93
2023-02-16T10:58:23.918Z,15.50
2023-02-16T11:00:58.340Z,15.63
2023-02-16T11:03:33.326Z,17.87
2023-02-16T11:06:15.769Z,16.70
2023-02-16T11:08:51.168Z,15.83
2023-02-16T11:11:22.708Z,15.03
2023-02-16T11:13:59.234Z,16.20
2023-02-16T11:16:29.980Z,14.10
2023-02-16T11:19:01.340Z,17.20
2023-02-16T11:21:47.294Z,15.37
2023-02-16T11:24:28.969Z,14.13
2023-02-16T11:27:06.933Z,15.40
2023-02-16T11:29:35.430Z,15.30
2023-02-16T11:32:08.666Z,13.60
2023-02-16T11:34:41.241Z,15.53
2023-02-16T11:37:20.053Z,15.80
2023-02-16T11:39:56.151Z,15.93
2023-02-16T11:42:32.682Z,15.03
2023-02-16T11:45:03.255Z,16.13
2023-02-16T11:47:34.282Z,16.77
2023-02-16T11:50:20.201Z,15.47
2023-02-16T11:52:49.689Z,15.37
2023-02-16T11:55:27.929Z,17.90
2023-02-16T11:57:57.005Z,15.57
2023-02-16T12:00:27.469Z,16.73
2023-02-16T12:03:21.533Z,17.57
2023-02-16T12:06:06.198Z,14.10
2023-02-16T12:08:51.360Z,14.83
2023-02-16T12:11:34.091Z,15.60
2023-02-16T12:14:23.065Z,25.03
2023-02-16T12:17:00.238Z,15.37
2023-02-16T12:19:41.718Z,14.57
2023-02-16T12:22:27.733Z,16.00
2023-02-16T12:25:14.066Z,16.30
2023-02-16T12:27:51.519Z,18.33
2023-02-16T12:30:33.853Z,15.47
2023-02-16T12:33:21.956Z,18.60
2023-02-16T12:36:16.428Z,17.00
2023-02-16T12:38:59.504Z,14.67
2023-02-16T12:41:42.387Z,16.10
2023-02-16T12:44:18.639Z,15.50
2023-02-16T12:46:49.855Z,15.30
2023-02-16T12:49:25.341Z,14.97
2023-02-16T12:51:59.356Z,14.77
2023-02-16T12:54:32.080Z,14.43
2023-02-16T12:57:05.598Z,16.80
2023-02-16T12:59:40.669Z,16.57
2023-02-16T13:02:19.443Z,22.27
2023-02-16T13:04:51.999Z,17.13
2023-02-16T13:07:28.616Z,16.00
2023-02-16T13:10:03.224Z,15.50
2023-02-16T13:12:36.797Z,16.27
2023-02-16T13:15:17.062Z,16.33
2023-02-16T13:17:50.584Z,15.37
2023-02-16T13:20:21.610Z,17.03
2023-02-16T13:23:24.423Z,15.87
2023-02-16T13:26:36.870Z,16.33
2023-02-16T13:29:40.074Z,14.90
2023-02-16T13:32:29.082Z,14.50
2023-02-16T13:35:17.475Z,17.03
2023-02-16T13:38:12.185Z,15.60
2023-02-16T13:41:13.136Z,16.80
2023-02-16T13:43:45.033Z,15.17
2023-02-16T13:46:19.636Z,15.90
2023-02-16T13:48:53.357Z,15.10
2023-02-16T13:51:24.505Z,15.23
2023-02-16T13:53:57.801Z,17.43
2023-02-16T13:56:36.877Z,16.97
2023-02-16T14:00:00.564Z,15.70
2023-02-16T14:02:58.552Z,16.50
2023-02-16T14:05:38.152Z,15.60
2023-02-16T14:08:25.541Z,16.30
2023-02-16T14:11:11.938Z,14.63
2023-02-16T14:13:51.568Z,15.40
2023-02-16T14:16:32.541Z,17.37
2023-02-16T14:19:04.587Z,15.90
2023-02-16T14:21:43.996Z,16.07
2023-02-16T14:24:23.370Z,16.60
2023-02-16T14:26:59.270Z,18.40
2023-02-16T14:29:31.814Z,17.70
2023-02-16T14:32:06.907Z,17.93
2023-02-16T14:34:41.217Z,16.80
2023-02-16T14:37:35.529Z,17.47
2023-02-16T14:40:31.408Z,17.93
2023-02-16T14:43:05.976Z,16.40
2023-02-16T14:46:27.481Z,21.50
2023-02-16T14:49:49.599Z,28.90
2023-02-16T14:52:48.367Z,16.90
2023-02-16T14:55:46.952Z,19.07
2023-02-16T14:58:28.797Z,19.17
2023-02-16T15:01:05.977Z,16.03
2023-02-16T15:03:45.290Z,17.17
2023-02-16T15:06:24.945Z,18.87
2023-02-16T15:08:59.031Z,19.43
2023-02-16T15:11:33.912Z,25.90
2023-02-16T15:14:10.167Z,22.67
2023-02-16T15:16:41.983Z,20.30
2023-02-16T15:19:17.820Z,19.60
2023-02-16T15:21:45.943Z,20.17
2023-02-16T15:24:25.538Z,19.53
2023-02-16T15:27:01.415Z,23.77
2023-02-16T15:29:31.219Z,22.90
2023-02-16T15:32:01.050Z,21.00
2023-02-16T15:34:34.714Z,22.80
2023-02-16T15:37:22.139Z,20.93
2023-02-16T15:40:08.675Z,22.40
2023-02-16T15:42:43.327Z,22.23
2023-02-16T15:45:35.267Z,21.87
2023-02-16T15:48:17.381Z,23.37
2023-02-16T15:50:47.108Z,22.27
2023-02-16T15:53:16.504Z,21.40
2023-02-16T15:55:48.002Z,22.33
2023-02-16T15:58:16.877Z,24.13
2023-02-16T16:00:47.704Z,20.80
2023-02-16T16:03:18.201Z,23.80
2023-02-16T16:06:01.464Z,24.30
2023-02-16T16:08:31.344Z,24.67
2023-02-16T16:11:01.095Z,24.67
2023-02-16T16:13:31.233Z,24.87
2023-02-16T16:16:04.514Z,23.03
2023-02-16T16:18:39.952Z,24.80
2023-02-16T16:21:25.762Z,25.00
2023-02-16T16:24:01.004Z,22.57
2023-02-16T16:26:37.146Z,22.87
2023-02-16T16:29:05.535Z,22.57
2023-02-16T16:31:41.857Z,20.93
2023-02-16T16:34:32.284Z,47.17
2023-02-16T16:37:02.701Z,28.37
2023-02-16T16:39:32.694Z,23.23
2023-02-16T16:42:24.964Z,20.60
2023-02-16T16:45:07.899Z,20.37
2023-02-16T16:47:39.012Z,21.20
2023-02-16T16:50:31.162Z,19.37
2023-02-16T16:52:59.217Z,19.03
2023-02-16T16:55:31.691Z,17.67
2023-02-16T16:58:04.200Z,19.63
2023-02-16T17:00:36.420Z,19.33
2023-02-16T17:03:07.038Z,15.67
2023-02-16T17:05:38.211Z,18.97
2023-02-16T17:08:06.575Z,17.93
2023-02-16T17:10:36.352Z,17.07
2023-02-16T17:13:05.950Z,16.90
2023-02-16T17:15:43.315Z,15.17
2023-02-16T17:18:17.062Z,17.67
2023-02-16T17:20:46.128Z,15.63
2023-02-16T17:23:16.800Z,16.17
2023-02-16T17:25:45.425Z,17.00
2023-02-16T17:28:17.375Z,19.60
2023-02-16T17:30:46.141Z,16.30
2023-02-16T17:33:14.156Z,19.70
2023-02-16T17:35:44.330Z,16.83
2023-02-16T17:38:18.418Z,15.37
2023-02-16T17:40:48.663Z,14.17
2023-02-16T17:43:20.039Z,18.53
2023-02-16T17:45:49.352Z,14.07
2023-02-16T17:48:20.805Z,16.90
2023-02-16T17:50:51.145Z,16.50
2023-02-16T17:53:23.107Z,15.60
2023-02-16T17:55:53.567Z,14.73
2023-02-16T17:58:25.004Z,15.93
2023-02-16T18:00:53.841Z,15.50
2023-02-16T18:03:22.857Z,15.30
2023-02-16T18:05:51.463Z,15.07
2023-02-16T18:08:19.560Z,14.13
2023-02-16T18:10:50.136Z,13.50
2023-02-16T18:13:18.896Z,15.57
2023-02-16T18:15:50.501Z,13.33
2023-02-16T18:18:21.550Z,14.03
2023-02-16T18:20:49.599Z,13.63
2023-02-16T18:23:17.731Z,14.13
2023-02-16T18:25:45.796Z,15.23
2023-02-16T18:28:18.276Z,15.93
2023-02-16T18:30:49.182Z,14.40
2023-02-16T18:33:17.531Z,15.00
2023-02-16T18:35:45.625Z,13.93
2023-02-16T18:38:13.791Z,11.93
2023-02-16T18:40:43.419Z,12.67
2023-02-16T18:43:11.834Z,15.63
2023-02-16T18:45:40.693Z,13.23
2023-02-16T18:48:10.106Z,13.90
2023-02-16T18:50:38.612Z,13.33
2023-02-16T18:53:07.127Z,13.97
2023-02-16T18:55:35.649Z,14.50
2023-02-16T18:58:07.935Z,12.63
2023-02-16T19:00:36.748Z,15.03
2023-02-16T19:03:04.978Z,15.70
2023-02-16T19:05:34.927Z,14.70
2023-02-16T19:08:03.492Z,14.87
2023-02-16T19:10:31.830Z,15.73
2023-02-16T19:13:01.924Z,12.17
2023-02-16T19:15:30.360Z,12.93
2023-02-16T19:17:58.492Z,13.87
2023-02-16T19:20:28.860Z,13.50
2023-02-16T19:22:58.266Z,15.27
2023-02-16T19:25:27.102Z,14.67
2023-02-16T19:27:55.179Z,13.73
2023-02-16T19:30:24.214Z,14.20
2023-02-16T19:32:52.400Z,14.70
2023-02-16T19:35:20.670Z,13.20
2023-02-16T19:37:48.729Z,14.37
2023-02-16T19:40:18.714Z,14.40
2023-02-16T19:42:46.793Z,15.20
2023-02-16T19:45:14.776Z,13.60
2023-02-16T19:47:42.861Z,14.30
2023-02-16T19:50:11.534Z,13.30
2023-02-16T19:52:39.645Z,14.03
2023-02-16T19:55:09.544Z,13.53
2023-02-16T19:57:40.508Z,15.63
2023-02-16T20:00:13.376Z,12.17
2023-02-16T20:02:41.455Z,12.50
2023-02-16T20:05:11.137Z,12.40
2023-02-16T20:07:39.236Z,13.40
2023-02-16T20:10:08.553Z,12.70
2023-02-16T20:12:36.663Z,14.20
2023-02-16T20:15:06.773Z,12.30
2023-02-16T20:17:34.777Z,11.77
2023-02-16T20:20:02.831Z,12.50
2023-02-16T20:22:30.866Z,11.63
2023-02-16T20:24:58.869Z,12.57
2023-02-16T20:27:29.293Z,13.63
2023-02-16T20:29:57.783Z,12.10
2023-02-16T20:32:28.218Z,12.57
2023-02-16T20:34:56.376Z,12.60
2023-02-16T20:37:24.608Z,11.87
2023-02-16T20:39:52.830Z,13.03
2023-02-16T20:42:21.022Z,13.60
2023-02-16T20:44:49.076Z,12.20
2023-02-16T20:47:20.256Z,11.57
2023-02-16T20:49:51.587Z,10.97
2023-02-16T20:52:19.886Z,10.80
2023-02-16T20:54:48.154Z,12.20
2023-02-16T20:57:26.487Z,12.10
2023-02-16T20:59:55.610Z,12.93
2023-02-16T21:02:23.658Z,12.57
2023-02-16T21:04:53.079Z,13.00
2023-02-16T21:07:21.183Z,18.67
2023-02-16T21:09:49.678Z,24.07
2023-02-16T21:12:17.696Z,15.73
2023-02-16T21:14:45.659Z,12.87
2023-02-16T21:17:13.686Z,13.27
2023-02-16T21:19:41.757Z,13.70
2023-02-16T21:22:11.221Z,14.17
2023-02-16T21:24:40.726Z,14.17
2023-02-16T21:27:08.895Z,13.90
2023-02-16T21:29:37.199Z,13.87
2023-02-16T21:32:08.595Z,12.77
2023-02-16T21:34:36.936Z,11.03
2023-02-16T21:37:05.094Z,12.13
2023-02-16T21:39:52.072Z,13.10
2023-02-16T21:42:20.109Z,11.97
2023-02-16T21:44:49.966Z,11.93
2023-02-16T21:47:36.828Z,12.53
2023-02-16T21:50:05.060Z,10.57
2023-02-16T21:52:33.088Z,11.57
2023-02-16T21:55:20.191Z,10.53
2023-02-16T21:57:49.325Z,11.97
2023-02-16T22:00:18.208Z,12.00
2023-02-16T22:02:46.175Z,13.00
2023-02-16T22:05:14.262Z,13.90
2023-02-16T22:07:42.257Z,14.37
2023-02-16T22:10:11.854Z,15.13
2023-02-16T22:12:39.892Z,13.60
2023-02-16T22:15:08.467Z,13.70
2023-02-16T22:17:36.538Z,13.20
2023-02-16T22:20:06.296Z,13.10
2023-02-16T22:22:34.367Z,13.70
2023-02-16T22:25:02.381Z,14.33
2023-02-16T22:27:31.727Z,13.13
2023-02-16T22:29:59.779Z,13.83
2023-02-16T22:32:27.991Z,14.33
2023-02-16T22:34:55.956Z,13.77
2023-02-16T22:37:25.004Z,12.50
2023-02-16T22:39:55.139Z,12.87
2023-02-16T22:42:25.977Z,13.90
2023-02-16T22:44:55.346Z,13.30
2023-02-16T22:47:26.400Z,12.63
2023-02-16T22:49:54.427Z,14.07
2023-02-16T22:52:22.384Z,14.57
2023-02-16T22:54:51.638Z,13.47
2023-02-16T22:57:20.036Z,13.30
2023-02-16T22:59:48.031Z,13.10
2023-02-16T23:02:17.377Z,14.57
2023-02-16T23:04:45.443Z,13.50
2023-02-16T23:07:13.444Z,11.53
2023-02-16T23:09:41.461Z,11.03
2023-02-16T23:12:09.627Z,13.90
2023-02-16T23:14:38.556Z,14.37
2023-02-16T23:17:06.606Z,12.17
2023-02-16T23:19:35.938Z,13.27
2023-02-16T23:22:03.968Z,12.17
2023-02-16T23:24:31.938Z,14.93
2023-02-16T23:27:00.443Z,14.00
2023-02-16T23:29:28.802Z,12.23
2023-02-16T23:31:56.814Z,12.40
2023-02-16T23:34:24.892Z,13.20
2023-02-16T23:36:54.197Z,13.73
2023-02-16T23:39:22.228Z,13.20
2023-02-16T23:41:50.213Z,12.30
2023-02-16T23:44:18.213Z,12.40
2023-02-16T23:46:46.208Z,11.60
2023-02-16T23:49:14.373Z,14.27
2023-02-16T23:51:42.378Z,12.23
2023-02-16T23:54:11.800Z,13.93
2023-02-16T23:56:41.224Z,11.90
2023-02-16T23:59:09.257Z,14.00
